createdAt,value
2016-10-25T00:03:47.385Z,0
2016-10-25T00:06:27.431Z,0
2016-10-25T00:08:45.543Z,0
2016-10-25T00:09:28.768Z,0
2016-10-25T00:10:10.446Z,0
2016-10-25T00:10:52.251Z,0
2016-10-25T00:11:33.888Z,0
2016-10-25T00:12:15.747Z,0
2016-10-25T00:12:57.406Z,0
2016-10-25T00:13:38.978Z,0
2016-10-25T00:14:20.737Z,0
2016-10-25T00:15:02.352Z,0
2016-10-25T00:15:44.075Z,0
2016-10-25T00:16:25.867Z,0
2016-10-25T00:17:07.594Z,0
2016-10-25T00:17:49.318Z,0
2016-10-25T00:18:30.979Z,0
2016-10-25T00:19:12.745Z,0
2016-10-25T00:19:54.385Z,0
2016-10-25T00:20:36.104Z,0
2016-10-25T00:21:17.738Z,0
2016-10-25T00:21:59.469Z,0
2016-10-25T00:22:41.125Z,0
2016-10-25T00:23:22.898Z,0
2016-10-25T00:24:04.713Z,0
2016-10-25T00:24:46.402Z,0
2016-10-25T00:25:28.148Z,0
2016-10-25T00:26:09.908Z,0
2016-10-25T00:26:51.662Z,0
2016-10-25T00:27:33.398Z,0
2016-10-25T00:28:15.143Z,0
2016-10-25T00:28:56.851Z,0
2016-10-25T00:29:38.575Z,0
2016-10-25T00:30:20.363Z,0
2016-10-25T00:31:02.137Z,0
2016-10-25T00:31:43.888Z,0
2016-10-25T00:32:25.651Z,0
2016-10-25T00:33:07.224Z,0
2016-10-25T00:33:48.997Z,0
2016-10-25T00:34:30.711Z,0
2016-10-25T00:35:12.442Z,0
2016-10-25T00:35:54.165Z,0
2016-10-25T00:36:35.743Z,0
2016-10-25T00:37:17.480Z,0
2016-10-25T00:37:59.237Z,0
2016-10-25T00:38:40.764Z,0
2016-10-25T00:39:22.513Z,0
2016-10-25T00:40:04.103Z,0
2016-10-25T00:40:45.761Z,0
2016-10-25T00:41:27.395Z,0
2016-10-25T00:42:09.197Z,0
2016-10-25T00:42:50.939Z,0
2016-10-25T00:43:32.636Z,0
2016-10-25T00:44:14.343Z,0
2016-10-25T00:44:56.100Z,0
2016-10-25T00:45:37.835Z,0
2016-10-25T00:46:19.521Z,0
2016-10-25T00:47:01.254Z,0
2016-10-25T00:47:43.005Z,0
2016-10-25T00:48:25.161Z,0
2016-10-25T00:49:06.913Z,0
2016-10-25T00:49:48.629Z,0
2016-10-25T00:50:30.379Z,0
2016-10-25T00:51:12.112Z,0
2016-10-25T00:51:53.862Z,0
2016-10-25T00:52:35.531Z,0
2016-10-25T00:53:17.317Z,0
2016-10-25T00:53:59.044Z,0
2016-10-25T00:54:40.805Z,0
2016-10-25T00:55:22.543Z,0
2016-10-25T00:56:04.247Z,0
2016-10-25T00:56:45.993Z,0
2016-10-25T00:57:27.782Z,0
2016-10-25T00:58:08.719Z,0
2016-10-25T00:58:49.176Z,0
2016-10-25T00:59:29.679Z,0
2016-10-25T01:00:10.173Z,0
2016-10-25T01:00:50.683Z,0
2016-10-25T01:01:31.202Z,0
2016-10-25T01:02:11.664Z,0
2016-10-25T01:02:52.166Z,0
2016-10-25T01:03:32.655Z,0
2016-10-25T01:04:13.164Z,0
2016-10-25T01:04:53.652Z,0
2016-10-25T01:05:34.156Z,0
2016-10-25T01:06:14.658Z,0
2016-10-25T01:06:55.140Z,0
2016-10-25T01:07:35.649Z,0
2016-10-25T01:08:16.136Z,0
2016-10-25T01:08:56.630Z,0
2016-10-25T01:09:37.162Z,0
2016-10-25T01:10:17.622Z,0
2016-10-25T01:10:58.119Z,0
2016-10-25T01:11:38.613Z,0
2016-10-25T01:12:19.125Z,0
2016-10-25T01:13:01.564Z,0
2016-10-25T01:13:42.050Z,0
2016-10-25T01:14:22.559Z,0
2016-10-25T01:15:03.038Z,0
2016-10-25T01:15:43.564Z,0
2016-10-25T01:16:24.038Z,0
2016-10-25T01:17:04.571Z,0
2016-10-25T01:17:45.040Z,0
2016-10-25T01:18:25.531Z,0
2016-10-25T01:19:06.023Z,0
2016-10-25T01:19:46.516Z,0
2016-10-25T01:20:27.031Z,0
2016-10-25T01:21:07.565Z,0
2016-10-25T01:21:48.034Z,0
2016-10-25T01:22:28.568Z,0
2016-10-25T01:23:09.046Z,0
2016-10-25T01:23:49.569Z,0
2016-10-25T01:24:30.074Z,0
2016-10-25T01:25:10.568Z,0
2016-10-25T01:25:51.083Z,0
2016-10-25T01:26:31.560Z,0
2016-10-25T01:27:12.067Z,0
2016-10-25T01:27:52.566Z,0
2016-10-25T01:28:33.070Z,0
2016-10-25T01:29:13.648Z,0
2016-10-25T01:29:54.112Z,0
2016-10-25T01:30:34.606Z,0
2016-10-25T01:31:15.107Z,0
2016-10-25T01:31:55.607Z,0
2016-10-25T01:32:36.121Z,0
2016-10-25T01:33:16.615Z,0
2016-10-25T01:33:57.113Z,0
2016-10-25T01:34:37.629Z,0
2016-10-25T01:35:18.134Z,0
2016-10-25T01:35:58.645Z,0
2016-10-25T01:36:39.153Z,0
2016-10-25T01:37:19.676Z,0
2016-10-25T01:38:00.203Z,0
2016-10-25T01:38:40.655Z,0
2016-10-25T01:39:21.148Z,0
2016-10-25T01:40:01.673Z,0
2016-10-25T01:40:42.208Z,0
2016-10-25T01:41:22.669Z,0
2016-10-25T01:42:03.230Z,0
2016-10-25T01:42:43.706Z,0
2016-10-25T01:43:24.206Z,0
2016-10-25T01:44:04.725Z,0
2016-10-25T01:44:45.222Z,0
2016-10-25T01:45:25.743Z,0
2016-10-25T01:46:06.267Z,0
2016-10-25T01:46:46.764Z,0
2016-10-25T01:47:27.233Z,0
2016-10-25T01:48:07.731Z,0
2016-10-25T01:48:48.231Z,0
2016-10-25T01:49:28.759Z,0
2016-10-25T01:50:09.315Z,0
2016-10-25T01:50:49.783Z,0
2016-10-25T01:51:30.303Z,0
2016-10-25T01:52:10.839Z,0
2016-10-25T01:52:51.313Z,0
2016-10-25T01:53:31.826Z,0
2016-10-25T01:54:12.318Z,0
2016-10-25T01:54:52.956Z,0
2016-10-25T01:55:33.464Z,0
2016-10-25T01:56:13.956Z,0
2016-10-25T01:56:54.477Z,0
2016-10-25T01:57:34.991Z,0
2016-10-25T01:58:15.527Z,0
2016-10-25T01:58:56.073Z,0
2016-10-25T01:59:36.598Z,0
2016-10-25T02:00:17.111Z,0
2016-10-25T02:00:57.664Z,0
2016-10-25T02:01:38.180Z,0
2016-10-25T02:02:18.678Z,0
2016-10-25T02:02:59.191Z,0
2016-10-25T02:03:39.722Z,0
2016-10-25T02:04:20.185Z,0
2016-10-25T02:05:00.698Z,0
2016-10-25T02:05:41.193Z,0
2016-10-25T02:06:21.715Z,0
2016-10-25T02:07:02.183Z,0
2016-10-25T02:07:42.683Z,0
2016-10-25T02:08:23.198Z,0
2016-10-25T02:09:03.702Z,0
2016-10-25T02:09:44.250Z,0
2016-10-25T02:10:24.729Z,0
2016-10-25T02:11:05.260Z,0
2016-10-25T02:11:45.764Z,0
2016-10-25T02:12:26.264Z,0
2016-10-25T02:13:06.772Z,0
2016-10-25T02:13:47.297Z,0
2016-10-25T02:14:27.799Z,0
2016-10-25T02:15:08.284Z,0
2016-10-25T02:15:48.875Z,0
2016-10-25T02:16:29.380Z,0
2016-10-25T02:17:09.912Z,0
2016-10-25T02:17:50.356Z,0
2016-10-25T02:18:30.863Z,0
2016-10-25T02:19:11.392Z,0
2016-10-25T02:19:51.863Z,0
2016-10-25T02:20:32.388Z,0
2016-10-25T02:21:12.911Z,0
2016-10-25T02:21:53.399Z,0
2016-10-25T02:22:33.919Z,0
2016-10-25T02:23:14.423Z,0
2016-10-25T02:23:54.927Z,0
2016-10-25T02:24:35.453Z,0
2016-10-25T02:25:15.943Z,0
2016-10-25T02:25:56.410Z,0
2016-10-25T02:26:36.915Z,0
2016-10-25T02:27:17.588Z,0
2016-10-25T02:27:58.104Z,0
2016-10-25T02:28:38.647Z,0
2016-10-25T02:29:19.113Z,0
2016-10-25T02:29:59.621Z,0
2016-10-25T02:30:40.153Z,0
2016-10-25T02:31:20.640Z,0
2016-10-25T02:32:01.213Z,0
2016-10-25T02:32:41.688Z,0
2016-10-25T02:33:22.169Z,0
2016-10-25T02:34:02.665Z,0
2016-10-25T02:34:43.157Z,0
2016-10-25T02:35:23.659Z,0
2016-10-25T02:36:04.158Z,0
2016-10-25T02:36:44.693Z,0
2016-10-25T02:37:25.182Z,0
2016-10-25T02:38:05.713Z,0
2016-10-25T02:38:46.222Z,0
2016-10-25T02:39:26.762Z,0
2016-10-25T02:40:07.242Z,0
2016-10-25T02:40:47.762Z,0
2016-10-25T02:41:28.271Z,0
2016-10-25T02:42:08.751Z,0
2016-10-25T02:42:49.279Z,0
2016-10-25T02:43:29.749Z,0
2016-10-25T02:44:10.251Z,0
2016-10-25T02:44:50.774Z,0
2016-10-25T02:45:31.299Z,0
2016-10-25T02:46:11.847Z,0
2016-10-25T02:46:52.349Z,0
2016-10-25T02:47:32.889Z,0
2016-10-25T02:48:13.451Z,0
2016-10-25T02:48:53.897Z,0
2016-10-25T02:49:34.424Z,0
2016-10-25T02:50:14.927Z,0
2016-10-25T02:50:55.428Z,0
2016-10-25T02:51:35.961Z,0
2016-10-25T02:52:16.477Z,0
2016-10-25T02:52:56.949Z,0
2016-10-25T02:53:37.567Z,0
2016-10-25T02:54:18.061Z,0
2016-10-25T02:54:58.564Z,0
2016-10-25T02:55:39.096Z,0
2016-10-25T02:56:19.593Z,0
2016-10-25T02:57:00.103Z,0
2016-10-25T02:57:40.599Z,0
2016-10-25T02:58:21.134Z,0
2016-10-25T02:59:01.699Z,0
2016-10-25T02:59:42.216Z,0
2016-10-25T03:00:22.693Z,0
2016-10-25T03:01:03.259Z,0
2016-10-25T03:01:43.749Z,0
2016-10-25T03:02:24.249Z,0
2016-10-25T03:03:04.754Z,0
2016-10-25T03:03:45.283Z,0
2016-10-25T03:04:25.796Z,0
2016-10-25T03:05:06.263Z,0
2016-10-25T03:05:46.798Z,0
2016-10-25T03:06:27.256Z,0
2016-10-25T03:07:07.793Z,0
2016-10-25T03:07:48.289Z,0
2016-10-25T03:08:28.813Z,0
2016-10-25T03:09:09.453Z,0
2016-10-25T03:09:49.938Z,0
2016-10-25T03:10:30.463Z,0
2016-10-25T03:11:10.951Z,0
2016-10-25T03:11:51.446Z,0
2016-10-25T03:12:31.978Z,0
2016-10-25T03:13:12.454Z,0
2016-10-25T03:13:53.030Z,0
2016-10-25T03:14:33.509Z,0
2016-10-25T03:15:13.998Z,0
2016-10-25T03:15:54.553Z,0
2016-10-25T03:16:35.066Z,0
2016-10-25T03:17:15.588Z,0
2016-10-25T03:17:56.077Z,0
2016-10-25T03:18:36.600Z,0
2016-10-25T03:19:17.101Z,0
2016-10-25T03:19:57.601Z,0
2016-10-25T03:20:38.111Z,0
2016-10-25T03:21:18.610Z,0
2016-10-25T03:21:59.117Z,0
2016-10-25T03:22:39.651Z,0
2016-10-25T03:23:20.146Z,0
2016-10-25T03:24:00.643Z,0
2016-10-25T03:24:41.140Z,0
2016-10-25T03:25:21.681Z,0
2016-10-25T03:26:02.193Z,0
2016-10-25T03:26:42.711Z,0
2016-10-25T03:27:23.210Z,0
2016-10-25T03:28:03.712Z,0
2016-10-25T03:28:44.231Z,0
2016-10-25T03:29:24.779Z,0
2016-10-25T03:30:05.266Z,0
2016-10-25T03:30:45.780Z,0
2016-10-25T03:31:26.304Z,0
2016-10-25T03:32:06.830Z,0
2016-10-25T03:32:47.351Z,0
2016-10-25T03:33:27.870Z,0
2016-10-25T03:34:08.402Z,0
2016-10-25T03:34:48.984Z,0
2016-10-25T03:35:29.468Z,0
2016-10-25T03:36:09.975Z,0
2016-10-25T03:36:50.498Z,0
2016-10-25T03:37:31.019Z,0
2016-10-25T03:38:11.509Z,0
2016-10-25T03:38:52.006Z,0
2016-10-25T03:39:32.528Z,0
2016-10-25T03:40:13.037Z,0
2016-10-25T03:40:53.554Z,0
2016-10-25T03:41:34.076Z,0
2016-10-25T03:42:14.576Z,0
2016-10-25T03:42:55.087Z,0
2016-10-25T03:43:35.591Z,0
2016-10-25T03:44:16.170Z,0
2016-10-25T03:44:56.627Z,0
2016-10-25T03:45:37.152Z,0
2016-10-25T03:46:17.676Z,0
2016-10-25T03:46:58.166Z,0
2016-10-25T03:47:38.649Z,0
2016-10-25T03:48:19.157Z,0
2016-10-25T03:48:59.707Z,0
2016-10-25T03:49:40.149Z,0
2016-10-25T03:50:20.699Z,0
2016-10-25T03:51:01.165Z,0
2016-10-25T03:51:41.731Z,0
2016-10-25T03:52:22.249Z,0
2016-10-25T03:53:02.758Z,0
2016-10-25T03:53:43.281Z,0
2016-10-25T03:54:23.790Z,0
2016-10-25T03:55:04.296Z,0
2016-10-25T03:55:44.876Z,0
2016-10-25T03:56:25.336Z,0
2016-10-25T03:57:05.876Z,0
2016-10-25T03:57:46.392Z,0
2016-10-25T03:58:26.922Z,0
2016-10-25T03:59:07.452Z,0
2016-10-25T03:59:47.968Z,0
2016-10-25T04:00:28.479Z,0
2016-10-25T04:01:09.021Z,0
2016-10-25T04:01:49.565Z,0
2016-10-25T04:02:30.041Z,0
2016-10-25T04:03:10.549Z,0
2016-10-25T04:03:51.039Z,0
2016-10-25T04:04:31.544Z,0
2016-10-25T04:05:12.058Z,0
2016-10-25T04:05:52.555Z,0
2016-10-25T04:06:33.104Z,0
2016-10-25T04:07:13.572Z,0
2016-10-25T04:07:54.109Z,0
2016-10-25T04:08:34.645Z,0
2016-10-25T04:09:15.166Z,0
2016-10-25T04:09:55.706Z,0
2016-10-25T04:10:36.226Z,0
2016-10-25T04:11:16.754Z,0
2016-10-25T04:11:57.265Z,0
2016-10-25T04:12:37.752Z,0
2016-10-25T04:13:18.277Z,0
2016-10-25T04:13:58.812Z,0
2016-10-25T04:14:39.340Z,0
2016-10-25T04:15:19.861Z,0
2016-10-25T04:16:00.353Z,0
2016-10-25T04:16:40.849Z,0
2016-10-25T04:17:21.434Z,0
2016-10-25T04:18:01.880Z,0
2016-10-25T04:18:42.392Z,0
2016-10-25T04:19:22.924Z,0
2016-10-25T04:20:03.411Z,0
2016-10-25T04:20:43.913Z,0
2016-10-25T04:21:24.429Z,0
2016-10-25T04:22:04.976Z,0
2016-10-25T04:22:45.459Z,0
2016-10-25T04:23:26.313Z,0
2016-10-25T04:24:06.851Z,0
2016-10-25T04:24:48.320Z,0
2016-10-25T04:25:29.885Z,0
2016-10-25T04:26:10.418Z,0
2016-10-25T04:26:50.953Z,0
2016-10-25T04:27:31.476Z,0
2016-10-25T04:28:11.983Z,0
2016-10-25T04:28:52.588Z,0
2016-10-25T04:29:33.055Z,0
2016-10-25T04:30:13.642Z,0
2016-10-25T04:30:54.288Z,0
2016-10-25T04:31:34.807Z,0
2016-10-25T04:32:15.342Z,0
2016-10-25T04:32:55.948Z,0
2016-10-25T04:33:36.429Z,0
2016-10-25T04:34:16.950Z,0
2016-10-25T04:34:57.449Z,0
2016-10-25T04:35:37.966Z,0
2016-10-25T04:36:18.476Z,0
2016-10-25T04:36:59.691Z,0
2016-10-25T04:37:40.208Z,0
2016-10-25T04:38:20.719Z,0
2016-10-25T04:39:01.227Z,0
2016-10-25T04:39:42.467Z,0
2016-10-25T04:40:23.036Z,0
2016-10-25T04:41:03.554Z,0
2016-10-25T04:41:44.048Z,0
2016-10-25T04:42:24.560Z,0
2016-10-25T04:43:05.161Z,0
2016-10-25T04:43:45.679Z,0
2016-10-25T04:44:26.204Z,0
2016-10-25T04:45:06.703Z,0
2016-10-25T04:45:47.210Z,0
2016-10-25T04:46:27.734Z,0
2016-10-25T04:47:08.229Z,0
2016-10-25T04:47:48.799Z,0
2016-10-25T04:48:29.283Z,0
2016-10-25T04:49:09.804Z,0
2016-10-25T04:49:50.275Z,0
2016-10-25T04:50:30.777Z,0
2016-10-25T04:51:11.297Z,0
2016-10-25T04:51:51.793Z,0
2016-10-25T04:52:32.297Z,0
2016-10-25T04:53:12.826Z,0
2016-10-25T04:53:53.345Z,0
2016-10-25T04:54:33.858Z,0
2016-10-25T04:55:14.388Z,0
2016-10-25T04:55:54.859Z,0
2016-10-25T04:56:35.410Z,0
2016-10-25T04:57:15.888Z,0
2016-10-25T04:57:56.405Z,0
2016-10-25T04:58:36.937Z,0
2016-10-25T04:59:17.445Z,0
2016-10-25T04:59:59.078Z,0
2016-10-25T05:00:39.529Z,0
2016-10-25T05:01:20.028Z,0
2016-10-25T05:02:00.526Z,0
2016-10-25T05:02:41.040Z,0
2016-10-25T05:03:21.551Z,0
2016-10-25T05:04:02.059Z,0
2016-10-25T05:04:44.111Z,0
2016-10-25T05:05:24.625Z,0
2016-10-25T05:06:06.721Z,0
2016-10-25T05:06:47.355Z,0
2016-10-25T05:07:27.906Z,0
2016-10-25T05:08:12.390Z,0
2016-10-25T05:08:52.927Z,0
2016-10-25T05:09:33.448Z,0
2016-10-25T05:10:13.990Z,0
2016-10-25T05:10:54.492Z,0
2016-10-25T05:11:34.988Z,0
2016-10-25T05:12:15.520Z,0
2016-10-25T05:12:56.063Z,0
2016-10-25T05:13:36.572Z,0
2016-10-25T05:14:17.067Z,0
2016-10-25T05:14:57.558Z,0
2016-10-25T05:15:38.077Z,0
2016-10-25T05:16:18.560Z,0
2016-10-25T05:16:59.077Z,0
2016-10-25T05:17:39.547Z,0
2016-10-25T05:18:20.058Z,0
2016-10-25T05:19:00.571Z,0
2016-10-25T05:19:41.059Z,0
2016-10-25T05:20:21.554Z,0
2016-10-25T05:21:02.051Z,0
2016-10-25T05:21:42.559Z,0
2016-10-25T05:22:23.097Z,0
2016-10-25T05:23:03.572Z,0
2016-10-25T05:23:44.084Z,0
2016-10-25T05:24:24.608Z,0
2016-10-25T05:25:05.080Z,0
2016-10-25T05:25:45.605Z,0
2016-10-25T05:26:26.070Z,0
2016-10-25T05:27:06.571Z,0
2016-10-25T05:27:47.091Z,0
2016-10-25T05:28:27.582Z,0
2016-10-25T05:29:08.079Z,0
2016-10-25T05:29:48.768Z,0
2016-10-25T05:30:29.063Z,0
2016-10-25T05:31:09.543Z,0
2016-10-25T05:31:50.067Z,0
2016-10-25T05:32:30.598Z,0
2016-10-25T05:33:11.123Z,0
2016-10-25T05:33:51.624Z,0
2016-10-25T05:34:32.097Z,0
2016-10-25T05:35:12.595Z,0
2016-10-25T05:35:53.134Z,0
2016-10-25T05:36:33.625Z,0
2016-10-25T05:37:14.387Z,0
2016-10-25T05:37:54.892Z,0
2016-10-25T05:38:35.383Z,0
2016-10-25T05:39:15.943Z,0
2016-10-25T05:39:56.681Z,0
2016-10-25T05:40:37.220Z,0
2016-10-25T05:41:17.744Z,0
2016-10-25T05:41:58.411Z,0
2016-10-25T05:42:38.943Z,0
2016-10-25T05:43:19.640Z,0
2016-10-25T05:44:00.173Z,0
2016-10-25T05:44:40.719Z,0
2016-10-25T05:45:21.267Z,0
2016-10-25T05:46:02.794Z,0
2016-10-25T05:46:43.321Z,0
2016-10-25T05:47:23.867Z,0
2016-10-25T05:51:17.110Z,0
2016-10-25T05:51:59.489Z,0
2016-10-25T05:52:40.023Z,4
2016-10-25T05:53:20.542Z,4
2016-10-25T05:54:01.093Z,4
2016-10-25T05:54:41.588Z,4
2016-10-25T05:55:22.115Z,4
2016-10-25T05:56:02.634Z,4
2016-10-25T05:56:43.147Z,4
2016-10-25T05:57:23.689Z,4
2016-10-25T05:58:04.187Z,8
2016-10-25T05:58:46.549Z,4
2016-10-25T05:59:27.081Z,8
2016-10-25T06:00:07.633Z,8
2016-10-25T06:00:48.146Z,8
2016-10-25T06:01:28.672Z,8
2016-10-25T06:02:09.194Z,12
2016-10-25T06:02:50.660Z,12
2016-10-25T06:03:31.188Z,12
2016-10-25T06:04:11.712Z,12
2016-10-25T06:04:52.221Z,12
2016-10-25T06:05:32.792Z,12
2016-10-25T06:06:13.297Z,16
2016-10-25T06:06:53.859Z,16
2016-10-25T06:07:34.394Z,16
2016-10-25T06:08:14.899Z,20
2016-10-25T06:08:55.413Z,20
2016-10-25T06:09:35.941Z,20
2016-10-25T06:10:16.498Z,24
2016-10-25T06:10:57.029Z,24
2016-10-25T06:11:37.534Z,28
2016-10-25T06:12:18.060Z,32
2016-10-25T06:12:58.606Z,36
2016-10-25T06:13:39.136Z,36
2016-10-25T06:14:19.661Z,40
2016-10-25T06:15:00.196Z,40
2016-10-25T06:15:40.717Z,40
2016-10-25T06:16:21.313Z,40
2016-10-25T06:17:01.829Z,48
2016-10-25T06:17:42.359Z,56
2016-10-25T06:18:22.902Z,56
2016-10-25T06:19:03.429Z,52
2016-10-25T06:19:43.964Z,52
2016-10-25T06:20:24.516Z,52
2016-10-25T06:21:05.034Z,56
2016-10-25T06:21:45.553Z,60
2016-10-25T06:22:26.136Z,52
2016-10-25T06:23:06.671Z,48
2016-10-25T06:23:47.210Z,56
2016-10-25T06:24:27.740Z,68
2016-10-25T06:25:08.261Z,76
2016-10-25T06:25:48.779Z,84
2016-10-25T06:26:29.293Z,88
2016-10-25T06:27:09.817Z,96
2016-10-25T06:27:50.333Z,100
2016-10-25T06:28:30.870Z,84
2016-10-25T06:29:11.418Z,92
2016-10-25T06:29:51.947Z,88
2016-10-25T06:30:32.475Z,80
2016-10-25T06:31:12.986Z,84
2016-10-25T06:31:53.500Z,112
2016-10-25T06:32:34.032Z,140
2016-10-25T06:33:14.560Z,148
2016-10-25T06:33:55.080Z,140
2016-10-25T06:34:35.618Z,140
2016-10-25T06:35:16.151Z,112
2016-10-25T06:35:56.697Z,108
2016-10-25T06:36:37.229Z,124
2016-10-25T06:37:17.746Z,172
2016-10-25T06:37:58.269Z,204
2016-10-25T06:38:38.788Z,192
2016-10-25T06:39:19.291Z,208
2016-10-25T06:39:59.823Z,212
2016-10-25T06:40:40.370Z,188
2016-10-25T06:41:20.916Z,164
2016-10-25T06:42:01.439Z,168
2016-10-25T06:42:41.965Z,164
2016-10-25T06:43:22.485Z,168
2016-10-25T06:44:03.012Z,204
2016-10-25T06:44:43.546Z,200
2016-10-25T06:45:24.062Z,220
2016-10-25T06:46:04.588Z,208
2016-10-25T06:46:45.116Z,204
2016-10-25T06:47:25.668Z,216
2016-10-25T06:48:06.225Z,288
2016-10-25T06:48:46.762Z,272
2016-10-25T06:49:27.270Z,296
2016-10-25T06:50:07.814Z,344
2016-10-25T06:50:48.334Z,332
2016-10-25T06:51:28.853Z,376
2016-10-25T06:52:09.380Z,396
2016-10-25T06:52:49.888Z,372
2016-10-25T06:53:31.935Z,396
2016-10-25T06:54:12.505Z,320
2016-10-25T06:54:53.069Z,340
2016-10-25T06:55:33.619Z,352
2016-10-25T06:56:14.130Z,416
2016-10-25T06:56:54.663Z,412
2016-10-25T06:57:35.187Z,376
2016-10-25T06:58:15.725Z,328
2016-10-25T06:58:56.271Z,300
2016-10-25T06:59:36.897Z,312
2016-10-25T07:00:17.497Z,384
2016-10-25T07:00:59.657Z,384
2016-10-25T07:01:40.179Z,464
2016-10-25T07:02:20.694Z,540
2016-10-25T07:03:05.845Z,472
2016-10-25T07:03:46.448Z,584
2016-10-25T07:04:28.712Z,644
2016-10-25T07:05:09.214Z,596
2016-10-25T07:05:49.761Z,648
2016-10-25T07:06:30.280Z,588
2016-10-25T07:07:10.789Z,552
2016-10-25T07:07:51.429Z,504
2016-10-25T07:08:31.951Z,456
2016-10-25T07:09:12.481Z,384
2016-10-25T07:09:53.008Z,356
2016-10-25T07:10:33.532Z,340
2016-10-25T07:11:14.077Z,320
2016-10-25T07:11:54.599Z,324
2016-10-25T07:12:35.094Z,316
2016-10-25T07:13:16.662Z,336
2016-10-25T07:13:57.190Z,352
2016-10-25T07:14:37.752Z,420
2016-10-25T07:15:18.260Z,368
2016-10-25T07:15:58.781Z,328
2016-10-25T07:16:41.154Z,324
2016-10-25T07:17:21.730Z,320
2016-10-25T07:18:02.262Z,312
2016-10-25T07:18:42.888Z,328
2016-10-25T07:19:23.407Z,380
2016-10-25T07:20:03.929Z,432
2016-10-25T07:20:44.443Z,376
2016-10-25T07:21:25.138Z,416
2016-10-25T07:22:05.667Z,460
2016-10-25T07:22:46.213Z,464
2016-10-25T07:23:26.714Z,464
2016-10-25T07:24:07.277Z,380
2016-10-25T07:24:47.815Z,416
2016-10-25T07:25:28.338Z,368
2016-10-25T07:26:08.873Z,324
2016-10-25T07:26:49.412Z,332
2016-10-25T07:27:29.946Z,312
2016-10-25T07:28:10.464Z,268
2016-10-25T07:28:50.995Z,252
2016-10-25T07:29:31.503Z,240
2016-10-25T07:30:12.039Z,240
2016-10-25T07:30:52.569Z,256
2016-10-25T07:31:33.097Z,288
2016-10-25T07:32:13.630Z,332
2016-10-25T07:32:54.164Z,400
2016-10-25T07:33:34.698Z,440
2016-10-25T07:34:15.228Z,444
2016-10-25T07:34:55.762Z,440
2016-10-25T07:35:36.273Z,428
2016-10-25T07:36:16.813Z,392
2016-10-25T07:36:57.353Z,384
2016-10-25T07:37:37.893Z,416
2016-10-25T07:38:18.430Z,440
2016-10-25T07:38:58.985Z,420
2016-10-25T07:39:39.485Z,452
2016-10-25T07:40:20.007Z,548
2016-10-25T07:41:00.537Z,520
2016-10-25T07:41:41.060Z,548
2016-10-25T07:42:21.581Z,676
2016-10-25T07:43:02.112Z,684
2016-10-25T07:43:42.659Z,640
2016-10-25T07:44:23.179Z,612
2016-10-25T07:45:03.700Z,588
2016-10-25T07:45:44.231Z,556
2016-10-25T07:46:24.765Z,504
2016-10-25T07:47:05.303Z,504
2016-10-25T07:47:45.838Z,624
2016-10-25T07:48:26.349Z,708
2016-10-25T07:49:06.880Z,800
2016-10-25T07:49:47.406Z,868
2016-10-25T07:50:27.950Z,868
2016-10-25T07:51:08.491Z,832
2016-10-25T07:51:49.028Z,800
2016-10-25T07:52:29.567Z,736
2016-10-25T07:53:10.089Z,776
2016-10-25T07:53:50.626Z,776
2016-10-25T07:54:31.167Z,748
2016-10-25T07:55:11.696Z,716
2016-10-25T07:55:52.211Z,676
2016-10-25T07:56:32.727Z,648
2016-10-25T07:57:13.268Z,620
2016-10-25T07:57:53.803Z,596
2016-10-25T07:58:34.357Z,564
2016-10-25T07:59:14.860Z,564
2016-10-25T07:59:55.373Z,632
2016-10-25T08:00:35.902Z,636
2016-10-25T08:01:16.466Z,548
2016-10-25T08:01:57.048Z,652
2016-10-25T08:02:37.534Z,704
2016-10-25T08:03:18.067Z,736
2016-10-25T08:03:58.584Z,728
2016-10-25T08:04:39.124Z,728
2016-10-25T08:05:19.657Z,732
2016-10-25T08:06:00.182Z,768
2016-10-25T08:06:40.692Z,760
2016-10-25T08:07:21.221Z,760
2016-10-25T08:08:01.760Z,744
2016-10-25T08:08:42.268Z,672
2016-10-25T08:09:22.790Z,648
2016-10-25T08:10:03.331Z,672
2016-10-25T08:10:43.866Z,656
2016-10-25T08:11:24.389Z,668
2016-10-25T08:12:04.906Z,692
2016-10-25T08:12:45.443Z,740
2016-10-25T08:13:25.975Z,820
2016-10-25T08:14:06.505Z,908
2016-10-25T08:14:47.055Z,880
2016-10-25T08:15:27.559Z,776
2016-10-25T08:16:08.079Z,692
2016-10-25T08:16:48.624Z,704
2016-10-25T08:17:29.145Z,772
2016-10-25T08:18:09.681Z,768
2016-10-25T08:18:50.182Z,788
2016-10-25T08:19:30.694Z,740
2016-10-25T08:20:11.220Z,728
2016-10-25T08:20:51.737Z,732
2016-10-25T08:21:32.266Z,772
2016-10-25T08:22:12.797Z,820
2016-10-25T08:22:53.340Z,776
2016-10-25T08:23:33.846Z,756
2016-10-25T08:24:14.390Z,836
2016-10-25T08:24:54.922Z,840
2016-10-25T08:25:35.457Z,792
2016-10-25T08:26:16.005Z,752
2016-10-25T08:26:56.536Z,712
2016-10-25T08:27:37.060Z,780
2016-10-25T08:28:17.590Z,908
2016-10-25T08:28:58.118Z,964
2016-10-25T08:29:38.634Z,1116
2016-10-25T08:30:19.243Z,1052
2016-10-25T08:30:59.783Z,904
2016-10-25T08:31:40.298Z,912
2016-10-25T08:32:20.858Z,856
2016-10-25T08:33:01.378Z,836
2016-10-25T08:33:41.905Z,832
2016-10-25T08:34:22.439Z,844
2016-10-25T08:35:02.990Z,852
2016-10-25T08:35:43.505Z,924
2016-10-25T08:36:24.038Z,1060
2016-10-25T08:37:04.553Z,1220
2016-10-25T08:37:45.055Z,1292
2016-10-25T08:38:25.611Z,1264
2016-10-25T08:39:06.112Z,1256
2016-10-25T08:39:46.643Z,1328
2016-10-25T08:40:27.176Z,1292
2016-10-25T08:41:07.699Z,1164
2016-10-25T08:41:48.237Z,1180
2016-10-25T08:42:28.750Z,1196
2016-10-25T08:43:09.279Z,1180
2016-10-25T08:43:49.805Z,1204
2016-10-25T08:44:30.309Z,1272
2016-10-25T08:45:10.871Z,1316
2016-10-25T08:45:51.387Z,1304
2016-10-25T08:46:31.922Z,1304
2016-10-25T08:47:12.456Z,1324
2016-10-25T08:47:52.965Z,1356
2016-10-25T08:48:33.494Z,1244
2016-10-25T08:49:14.019Z,1152
2016-10-25T08:49:54.556Z,1132
2016-10-25T08:50:35.085Z,1160
2016-10-25T08:51:15.592Z,1228
2016-10-25T08:51:56.111Z,1280
2016-10-25T08:52:36.636Z,1204
2016-10-25T08:53:17.159Z,1216
2016-10-25T08:53:57.691Z,1280
2016-10-25T08:54:38.238Z,1260
2016-10-25T08:55:18.779Z,1188
2016-10-25T08:55:59.327Z,1092
2016-10-25T08:56:39.841Z,1068
2016-10-25T08:57:20.337Z,1056
2016-10-25T08:58:00.862Z,1108
2016-10-25T08:58:41.365Z,1116
2016-10-25T08:59:21.894Z,1116
2016-10-25T09:00:02.410Z,1076
2016-10-25T09:00:42.946Z,976
2016-10-25T09:01:23.459Z,1000
2016-10-25T09:02:04.001Z,1020
2016-10-25T09:02:44.549Z,964
2016-10-25T09:03:25.065Z,968
2016-10-25T09:04:05.593Z,1012
2016-10-25T09:04:46.092Z,1076
2016-10-25T09:05:26.631Z,1184
2016-10-25T09:06:07.128Z,1192
2016-10-25T09:06:47.657Z,1220
2016-10-25T09:07:28.195Z,1316
2016-10-25T09:08:08.722Z,1340
2016-10-25T09:08:49.255Z,1344
2016-10-25T09:09:29.763Z,1416
2016-10-25T09:10:10.294Z,1524
2016-10-25T09:10:50.814Z,1752
2016-10-25T09:11:31.351Z,2040
2016-10-25T09:12:11.861Z,2276
2016-10-25T09:12:52.387Z,2352
2016-10-25T09:13:32.907Z,2436
2016-10-25T09:14:13.418Z,2496
2016-10-25T09:14:53.956Z,2584
2016-10-25T09:15:34.499Z,2728
2016-10-25T09:16:15.035Z,2880
2016-10-25T09:16:55.567Z,3020
2016-10-25T09:17:36.085Z,3116
2016-10-25T09:18:16.598Z,3212
2016-10-25T09:18:57.152Z,3268
2016-10-25T09:19:37.674Z,3400
2016-10-25T09:20:18.196Z,3608
2016-10-25T09:20:58.715Z,3784
2016-10-25T09:21:39.260Z,3888
2016-10-25T09:22:19.791Z,3828
2016-10-25T09:23:00.312Z,3772
2016-10-25T09:23:40.831Z,3720
2016-10-25T09:24:21.359Z,3676
2016-10-25T09:25:01.882Z,3560
2016-10-25T09:25:42.423Z,3580
2016-10-25T09:26:22.951Z,3628
2016-10-25T09:27:03.469Z,3528
2016-10-25T09:27:44.009Z,3356
2016-10-25T09:28:24.540Z,3200
2016-10-25T09:29:05.079Z,3404
2016-10-25T09:29:45.610Z,3340
2016-10-25T09:30:26.122Z,3240
2016-10-25T09:31:06.673Z,3112
2016-10-25T09:31:47.184Z,3176
2016-10-25T09:32:27.716Z,3220
2016-10-25T09:33:08.220Z,3060
2016-10-25T09:33:48.752Z,2540
2016-10-25T09:34:29.268Z,2312
2016-10-25T09:35:09.769Z,2148
2016-10-25T09:35:50.304Z,1892
2016-10-25T09:36:30.829Z,1764
2016-10-25T09:37:11.331Z,1788
2016-10-25T09:37:51.859Z,1800
2016-10-25T09:38:32.382Z,1648
2016-10-25T09:39:12.899Z,1424
2016-10-25T09:39:53.443Z,1188
2016-10-25T09:40:33.963Z,1124
2016-10-25T09:41:14.502Z,1172
2016-10-25T09:41:55.012Z,1336
2016-10-25T09:42:35.524Z,1440
2016-10-25T09:43:16.053Z,1572
2016-10-25T09:43:56.592Z,1816
2016-10-25T09:44:37.131Z,1908
2016-10-25T09:45:17.661Z,2224
2016-10-25T09:45:58.179Z,2512
2016-10-25T09:46:38.719Z,2680
2016-10-25T09:47:19.242Z,2812
2016-10-25T09:47:59.767Z,2972
2016-10-25T09:48:40.309Z,3028
2016-10-25T09:49:20.819Z,3168
2016-10-25T09:50:01.352Z,3292
2016-10-25T09:50:41.856Z,3344
2016-10-25T09:51:22.385Z,3280
2016-10-25T09:52:02.915Z,3136
2016-10-25T09:52:43.460Z,2864